sensor_id;sensor_type;location;lat;lon;timestamp;P1;durP1;ratioP1;P2;durP2;ratioP2
59147;SDS011;44930;52.878;6.168;2022-12-13T00:01:30;37.80;;;20.73;;
59147;SDS011;44930;52.878;6.168;2022-12-13T00:03:58;38.03;;;19.92;;
59147;SDS011;44930;52.878;6.168;2022-12-13T00:06:24;37.72;;;19.48;;
59147;SDS011;44930;52.878;6.168;2022-12-13T00:08:51;36.67;;;19.40;;
59147;SDS011;44930;52.878;6.168;2022-12-13T00:11:17;35.67;;;19.50;;
59147;SDS011;44930;52.878;6.168;2022-12-13T00:13:43;37.63;;;18.52;;
59147;SDS011;44930;52.878;6.168;2022-12-13T00:16:12;34.53;;;18.95;;
59147;SDS011;44930;52.878;6.168;2022-12-13T00:18:39;38.03;;;18.55;;
59147;SDS011;44930;52.878;6.168;2022-12-13T00:21:06;41.25;;;18.50;;
59147;SDS011;44930;52.878;6.168;2022-12-13T00:23:32;34.25;;;17.40;;
59147;SDS011;44930;52.878;6.168;2022-12-13T00:26:05;36.35;;;17.20;;
59147;SDS011;44930;52.878;6.168;2022-12-13T00:28:33;33.40;;;18.90;;
59147;SDS011;44930;52.878;6.168;2022-12-13T00:30:59;35.08;;;18.85;;
59147;SDS011;44930;52.878;6.168;2022-12-13T00:33:26;38.38;;;18.85;;
59147;SDS011;44930;52.878;6.168;2022-12-13T00:35:52;36.38;;;17.58;;
59147;SDS011;44930;52.878;6.168;2022-12-13T00:38:18;33.65;;;19.50;;
59147;SDS011;44930;52.878;6.168;2022-12-13T00:40:44;37.35;;;18.25;;
59147;SDS011;44930;52.878;6.168;2022-12-13T00:43:10;35.75;;;18.77;;
59147;SDS011;44930;52.878;6.168;2022-12-13T00:45:36;36.55;;;18.75;;
59147;SDS011;44930;52.878;6.168;2022-12-13T00:48:03;34.88;;;17.58;;
59147;SDS011;44930;52.878;6.168;2022-12-13T00:50:29;42.33;;;19.70;;
59147;SDS011;44930;52.878;6.168;2022-12-13T00:52:55;37.50;;;18.05;;
59147;SDS011;44930;52.878;6.168;2022-12-13T00:55:21;34.55;;;17.42;;
59147;SDS011;44930;52.878;6.168;2022-12-13T00:57:47;36.40;;;18.35;;
59147;SDS011;44930;52.878;6.168;2022-12-13T01:00:13;36.53;;;18.92;;
59147;SDS011;44930;52.878;6.168;2022-12-13T01:02:39;31.77;;;17.95;;
59147;SDS011;44930;52.878;6.168;2022-12-13T01:05:07;35.28;;;16.73;;
59147;SDS011;44930;52.878;6.168;2022-12-13T01:07:33;39.70;;;19.38;;
59147;SDS011;44930;52.878;6.168;2022-12-13T01:09:59;34.53;;;18.35;;
59147;SDS011;44930;52.878;6.168;2022-12-13T01:12:25;34.00;;;17.42;;
59147;SDS011;44930;52.878;6.168;2022-12-13T01:14:51;31.08;;;17.10;;
59147;SDS011;44930;52.878;6.168;2022-12-13T01:17:17;39.38;;;19.77;;
59147;SDS011;44930;52.878;6.168;2022-12-13T01:19:43;33.42;;;17.58;;
59147;SDS011;44930;52.878;6.168;2022-12-13T01:22:09;33.50;;;17.77;;
59147;SDS011;44930;52.878;6.168;2022-12-13T01:24:36;32.47;;;17.35;;
59147;SDS011;44930;52.878;6.168;2022-12-13T01:27:02;37.28;;;18.08;;
59147;SDS011;44930;52.878;6.168;2022-12-13T01:29:28;35.03;;;17.23;;
59147;SDS011;44930;52.878;6.168;2022-12-13T01:31:55;33.65;;;18.20;;
59147;SDS011;44930;52.878;6.168;2022-12-13T01:34:21;34.80;;;17.65;;
59147;SDS011;44930;52.878;6.168;2022-12-13T01:36:47;33.65;;;17.33;;
59147;SDS011;44930;52.878;6.168;2022-12-13T01:39:14;38.17;;;18.98;;
59147;SDS011;44930;52.878;6.168;2022-12-13T01:41:48;36.72;;;18.70;;
59147;SDS011;44930;52.878;6.168;2022-12-13T01:47:21;33.83;;;18.02;;
59147;SDS011;44930;52.878;6.168;2022-12-13T01:49:48;38.35;;;18.00;;
59147;SDS011;44930;52.878;6.168;2022-12-13T01:52:14;32.92;;;16.92;;
59147;SDS011;44930;52.878;6.168;2022-12-13T01:54:43;34.22;;;17.63;;
59147;SDS011;44930;52.878;6.168;2022-12-13T01:57:11;35.53;;;17.08;;
59147;SDS011;44930;52.878;6.168;2022-12-13T01:59:38;38.45;;;17.92;;
59147;SDS011;44930;52.878;6.168;2022-12-13T02:02:06;29.50;;;15.65;;
59147;SDS011;44930;52.878;6.168;2022-12-13T02:05:17;30.65;;;16.13;;
59147;SDS011;44930;52.878;6.168;2022-12-13T02:07:25;35.72;;;18.70;;
59147;SDS011;44930;52.878;6.168;2022-12-13T02:09:52;35.40;;;16.85;;
59147;SDS011;44930;52.878;6.168;2022-12-13T02:12:20;28.02;;;16.13;;
59147;SDS011;44930;52.878;6.168;2022-12-13T02:14:46;31.45;;;16.02;;
59147;SDS011;44930;52.878;6.168;2022-12-13T02:17:25;34.95;;;15.20;;
59147;SDS011;44930;52.878;6.168;2022-12-13T02:20:18;30.27;;;16.48;;
59147;SDS011;44930;52.878;6.168;2022-12-13T02:30:38;26.73;;;15.18;;
59147;SDS011;44930;52.878;6.168;2022-12-13T02:33:21;31.35;;;16.33;;
59147;SDS011;44930;52.878;6.168;2022-12-13T02:35:59;33.90;;;15.43;;
59147;SDS011;44930;52.878;6.168;2022-12-13T02:41:06;31.10;;;16.65;;
59147;SDS011;44930;52.878;6.168;2022-12-13T02:43:35;31.00;;;15.45;;
59147;SDS011;44930;52.878;6.168;2022-12-13T02:46:03;33.53;;;15.77;;
59147;SDS011;44930;52.878;6.168;2022-12-13T02:48:35;28.70;;;16.38;;
59147;SDS011;44930;52.878;6.168;2022-12-13T02:51:02;28.77;;;15.75;;
59147;SDS011;44930;52.878;6.168;2022-12-13T02:53:29;32.38;;;15.43;;
59147;SDS011;44930;52.878;6.168;2022-12-13T02:55:56;27.33;;;14.98;;
59147;SDS011;44930;52.878;6.168;2022-12-13T02:58:22;27.48;;;15.73;;
59147;SDS011;44930;52.878;6.168;2022-12-13T03:00:52;31.30;;;16.10;;
59147;SDS011;44930;52.878;6.168;2022-12-13T03:06:02;25.17;;;14.20;;
59147;SDS011;44930;52.878;6.168;2022-12-13T03:11:16;28.70;;;15.20;;
59147;SDS011;44930;52.878;6.168;2022-12-13T03:16:20;27.02;;;14.80;;
59147;SDS011;44930;52.878;6.168;2022-12-13T03:18:47;29.45;;;15.52;;
59147;SDS011;44930;52.878;6.168;2022-12-13T03:21:13;33.33;;;15.07;;
59147;SDS011;44930;52.878;6.168;2022-12-13T03:23:39;27.70;;;14.35;;
59147;SDS011;44930;52.878;6.168;2022-12-13T03:26:09;27.25;;;14.90;;
59147;SDS011;44930;52.878;6.168;2022-12-13T03:28:36;30.90;;;17.02;;
59147;SDS011;44930;52.878;6.168;2022-12-13T03:31:02;30.85;;;15.27;;
59147;SDS011;44930;52.878;6.168;2022-12-13T03:33:28;32.35;;;16.13;;
59147;SDS011;44930;52.878;6.168;2022-12-13T03:35:54;28.73;;;15.40;;
59147;SDS011;44930;52.878;6.168;2022-12-13T03:38:20;27.60;;;14.90;;
59147;SDS011;44930;52.878;6.168;2022-12-13T03:40:46;27.63;;;15.30;;
59147;SDS011;44930;52.878;6.168;2022-12-13T03:43:12;28.92;;;14.88;;
59147;SDS011;44930;52.878;6.168;2022-12-13T03:45:38;26.33;;;15.52;;
59147;SDS011;44930;52.878;6.168;2022-12-13T03:48:04;29.65;;;14.80;;
59147;SDS011;44930;52.878;6.168;2022-12-13T03:50:31;26.75;;;15.00;;
59147;SDS011;44930;52.878;6.168;2022-12-13T03:52:57;23.42;;;13.82;;
59147;SDS011;44930;52.878;6.168;2022-12-13T03:55:24;26.20;;;14.70;;
59147;SDS011;44930;52.878;6.168;2022-12-13T03:57:50;29.40;;;14.85;;
59147;SDS011;44930;52.878;6.168;2022-12-13T04:00:16;25.63;;;13.70;;
59147;SDS011;44930;52.878;6.168;2022-12-13T04:02:42;30.42;;;14.35;;
59147;SDS011;44930;52.878;6.168;2022-12-13T04:05:08;29.23;;;14.38;;
59147;SDS011;44930;52.878;6.168;2022-12-13T04:07:33;29.42;;;13.73;;
59147;SDS011;44930;52.878;6.168;2022-12-13T04:09:59;24.42;;;14.07;;
59147;SDS011;44930;52.878;6.168;2022-12-13T04:12:25;29.05;;;13.55;;
59147;SDS011;44930;52.878;6.168;2022-12-13T04:15:10;28.77;;;14.07;;
59147;SDS011;44930;52.878;6.168;2022-12-13T04:17:36;23.90;;;13.95;;
59147;SDS011;44930;52.878;6.168;2022-12-13T04:20:02;29.27;;;14.45;;
59147;SDS011;44930;52.878;6.168;2022-12-13T04:22:28;23.33;;;13.35;;
59147;SDS011;44930;52.878;6.168;2022-12-13T04:24:54;26.08;;;15.35;;
59147;SDS011;44930;52.878;6.168;2022-12-13T04:27:20;25.20;;;14.50;;
59147;SDS011;44930;52.878;6.168;2022-12-13T04:29:46;27.17;;;14.52;;
59147;SDS011;44930;52.878;6.168;2022-12-13T04:32:12;24.23;;;13.57;;
59147;SDS011;44930;52.878;6.168;2022-12-13T04:34:38;29.55;;;16.48;;
59147;SDS011;44930;52.878;6.168;2022-12-13T04:37:04;29.70;;;15.00;;
59147;SDS011;44930;52.878;6.168;2022-12-13T04:39:30;24.02;;;14.13;;
59147;SDS011;44930;52.878;6.168;2022-12-13T04:41:56;26.42;;;13.93;;
59147;SDS011;44930;52.878;6.168;2022-12-13T04:44:22;27.33;;;15.25;;
59147;SDS011;44930;52.878;6.168;2022-12-13T04:46:48;30.33;;;15.77;;
59147;SDS011;44930;52.878;6.168;2022-12-13T04:49:14;23.27;;;14.07;;
59147;SDS011;44930;52.878;6.168;2022-12-13T04:51:40;28.67;;;14.18;;
59147;SDS011;44930;52.878;6.168;2022-12-13T04:54:06;27.50;;;15.57;;
59147;SDS011;44930;52.878;6.168;2022-12-13T04:56:32;27.88;;;14.15;;
59147;SDS011;44930;52.878;6.168;2022-12-13T04:58:58;29.35;;;15.95;;
59147;SDS011;44930;52.878;6.168;2022-12-13T05:01:24;23.83;;;14.15;;
59147;SDS011;44930;52.878;6.168;2022-12-13T05:03:50;31.80;;;16.50;;
59147;SDS011;44930;52.878;6.168;2022-12-13T05:06:16;28.65;;;14.85;;
59147;SDS011;44930;52.878;6.168;2022-12-13T05:08:42;36.80;;;15.80;;
59147;SDS011;44930;52.878;6.168;2022-12-13T05:11:09;27.48;;;13.95;;
59147;SDS011;44930;52.878;6.168;2022-12-13T05:13:35;33.40;;;15.10;;
59147;SDS011;44930;52.878;6.168;2022-12-13T05:16:03;26.83;;;14.30;;
59147;SDS011;44930;52.878;6.168;2022-12-13T05:18:30;26.98;;;14.07;;
59147;SDS011;44930;52.878;6.168;2022-12-13T05:21:00;28.67;;;14.40;;
59147;SDS011;44930;52.878;6.168;2022-12-13T05:23:26;31.20;;;17.13;;
59147;SDS011;44930;52.878;6.168;2022-12-13T05:25:52;31.30;;;15.75;;
59147;SDS011;44930;52.878;6.168;2022-12-13T05:28:18;24.67;;;14.00;;
59147;SDS011;44930;52.878;6.168;2022-12-13T05:30:44;24.88;;;14.13;;
59147;SDS011;44930;52.878;6.168;2022-12-13T05:33:10;26.45;;;14.70;;
59147;SDS011;44930;52.878;6.168;2022-12-13T05:35:36;27.48;;;15.50;;
59147;SDS011;44930;52.878;6.168;2022-12-13T05:38:03;31.50;;;15.30;;
59147;SDS011;44930;52.878;6.168;2022-12-13T05:40:29;30.95;;;14.18;;
59147;SDS011;44930;52.878;6.168;2022-12-13T05:42:56;30.08;;;15.15;;
59147;SDS011;44930;52.878;6.168;2022-12-13T05:45:22;28.50;;;14.43;;
59147;SDS011;44930;52.878;6.168;2022-12-13T05:47:48;27.00;;;14.55;;
59147;SDS011;44930;52.878;6.168;2022-12-13T05:50:15;29.17;;;15.05;;
59147;SDS011;44930;52.878;6.168;2022-12-13T05:52:41;25.67;;;13.93;;
59147;SDS011;44930;52.878;6.168;2022-12-13T05:55:08;30.73;;;16.05;;
59147;SDS011;44930;52.878;6.168;2022-12-13T05:57:35;27.45;;;14.85;;
59147;SDS011;44930;52.878;6.168;2022-12-13T06:00:01;27.20;;;14.95;;
59147;SDS011;44930;52.878;6.168;2022-12-13T06:02:27;27.20;;;15.65;;
59147;SDS011;44930;52.878;6.168;2022-12-13T06:04:53;29.60;;;14.75;;
59147;SDS011;44930;52.878;6.168;2022-12-13T06:07:19;28.75;;;14.63;;
59147;SDS011;44930;52.878;6.168;2022-12-13T06:09:45;33.08;;;14.77;;
59147;SDS011;44930;52.878;6.168;2022-12-13T06:12:11;29.65;;;15.80;;
59147;SDS011;44930;52.878;6.168;2022-12-13T06:14:37;30.98;;;15.90;;
59147;SDS011;44930;52.878;6.168;2022-12-13T06:17:03;31.70;;;16.15;;
59147;SDS011;44930;52.878;6.168;2022-12-13T06:19:29;32.05;;;16.42;;
59147;SDS011;44930;52.878;6.168;2022-12-13T06:21:55;32.85;;;17.42;;
59147;SDS011;44930;52.878;6.168;2022-12-13T06:24:21;28.50;;;15.35;;
59147;SDS011;44930;52.878;6.168;2022-12-13T06:26:48;32.63;;;17.75;;
59147;SDS011;44930;52.878;6.168;2022-12-13T06:29:15;30.95;;;14.80;;
59147;SDS011;44930;52.878;6.168;2022-12-13T06:31:42;29.45;;;15.23;;
59147;SDS011;44930;52.878;6.168;2022-12-13T06:34:08;28.83;;;15.10;;
59147;SDS011;44930;52.878;6.168;2022-12-13T06:36:34;30.88;;;15.65;;
59147;SDS011;44930;52.878;6.168;2022-12-13T06:39:06;41.60;;;17.63;;
59147;SDS011;44930;52.878;6.168;2022-12-13T06:41:32;30.42;;;16.02;;
59147;SDS011;44930;52.878;6.168;2022-12-13T06:43:58;29.05;;;15.18;;
59147;SDS011;44930;52.878;6.168;2022-12-13T06:46:25;30.20;;;15.20;;
59147;SDS011;44930;52.878;6.168;2022-12-13T06:48:51;32.10;;;16.88;;
59147;SDS011;44930;52.878;6.168;2022-12-13T06:51:17;30.33;;;16.33;;
59147;SDS011;44930;52.878;6.168;2022-12-13T06:53:43;30.70;;;16.10;;
59147;SDS011;44930;52.878;6.168;2022-12-13T06:56:11;28.00;;;15.40;;
59147;SDS011;44930;52.878;6.168;2022-12-13T06:58:37;27.42;;;15.38;;
59147;SDS011;44930;52.878;6.168;2022-12-13T07:01:11;32.53;;;16.55;;
59147;SDS011;44930;52.878;6.168;2022-12-13T07:03:38;32.92;;;18.00;;
59147;SDS011;44930;52.878;6.168;2022-12-13T07:06:14;28.88;;;16.60;;
59147;SDS011;44930;52.878;6.168;2022-12-13T07:08:41;32.15;;;16.30;;
59147;SDS011;44930;52.878;6.168;2022-12-13T07:11:07;30.67;;;16.80;;
59147;SDS011;44930;52.878;6.168;2022-12-13T07:13:33;34.92;;;15.68;;
59147;SDS011;44930;52.878;6.168;2022-12-13T07:15:59;32.33;;;15.63;;
59147;SDS011;44930;52.878;6.168;2022-12-13T07:18:25;32.45;;;15.73;;
59147;SDS011;44930;52.878;6.168;2022-12-13T07:20:51;29.02;;;15.40;;
59147;SDS011;44930;52.878;6.168;2022-12-13T07:23:17;28.55;;;14.38;;
59147;SDS011;44930;52.878;6.168;2022-12-13T07:25:49;34.60;;;18.00;;
59147;SDS011;44930;52.878;6.168;2022-12-13T07:28:17;30.05;;;15.82;;
59147;SDS011;44930;52.878;6.168;2022-12-13T07:30:43;32.53;;;14.48;;
59147;SDS011;44930;52.878;6.168;2022-12-13T07:33:09;29.23;;;15.00;;
59147;SDS011;44930;52.878;6.168;2022-12-13T07:35:35;29.83;;;16.83;;
59147;SDS011;44930;52.878;6.168;2022-12-13T07:38:01;30.48;;;15.95;;
59147;SDS011;44930;52.878;6.168;2022-12-13T07:40:27;33.20;;;16.30;;
59147;SDS011;44930;52.878;6.168;2022-12-13T07:42:54;28.38;;;15.43;;
59147;SDS011;44930;52.878;6.168;2022-12-13T07:45:20;31.75;;;14.75;;
59147;SDS011;44930;52.878;6.168;2022-12-13T07:47:47;33.35;;;16.67;;
59147;SDS011;44930;52.878;6.168;2022-12-13T07:50:13;33.40;;;15.88;;
59147;SDS011;44930;52.878;6.168;2022-12-13T07:52:39;27.25;;;15.30;;
59147;SDS011;44930;52.878;6.168;2022-12-13T07:55:06;29.85;;;16.02;;
59147;SDS011;44930;52.878;6.168;2022-12-13T07:57:32;29.35;;;16.08;;
59147;SDS011;44930;52.878;6.168;2022-12-13T07:59:58;32.65;;;15.18;;
59147;SDS011;44930;52.878;6.168;2022-12-13T08:02:24;30.15;;;15.95;;
59147;SDS011;44930;52.878;6.168;2022-12-13T08:04:51;32.35;;;16.23;;
59147;SDS011;44930;52.878;6.168;2022-12-13T08:07:17;30.45;;;16.10;;
59147;SDS011;44930;52.878;6.168;2022-12-13T08:09:43;31.17;;;16.13;;
59147;SDS011;44930;52.878;6.168;2022-12-13T08:12:09;33.17;;;16.08;;
59147;SDS011;44930;52.878;6.168;2022-12-13T08:14:35;32.47;;;16.50;;
59147;SDS011;44930;52.878;6.168;2022-12-13T08:17:01;29.92;;;17.13;;
59147;SDS011;44930;52.878;6.168;2022-12-13T08:19:27;34.20;;;16.23;;
59147;SDS011;44930;52.878;6.168;2022-12-13T08:21:53;34.72;;;16.63;;
59147;SDS011;44930;52.878;6.168;2022-12-13T08:24:20;34.22;;;17.52;;
59147;SDS011;44930;52.878;6.168;2022-12-13T08:26:46;35.05;;;16.48;;
59147;SDS011;44930;52.878;6.168;2022-12-13T08:29:12;31.77;;;16.98;;
59147;SDS011;44930;52.878;6.168;2022-12-13T08:31:38;33.40;;;17.73;;
59147;SDS011;44930;52.878;6.168;2022-12-13T08:34:04;32.95;;;17.83;;
59147;SDS011;44930;52.878;6.168;2022-12-13T08:36:30;35.22;;;18.98;;
59147;SDS011;44930;52.878;6.168;2022-12-13T08:38:57;35.60;;;19.85;;
59147;SDS011;44930;52.878;6.168;2022-12-13T08:41:26;36.80;;;19.45;;
59147;SDS011;44930;52.878;6.168;2022-12-13T08:43:52;43.85;;;20.83;;
59147;SDS011;44930;52.878;6.168;2022-12-13T08:46:18;37.28;;;20.42;;
59147;SDS011;44930;52.878;6.168;2022-12-13T08:48:44;45.13;;;21.60;;
59147;SDS011;44930;52.878;6.168;2022-12-13T08:51:10;42.92;;;20.80;;
59147;SDS011;44930;52.878;6.168;2022-12-13T08:53:37;34.92;;;17.75;;
59147;SDS011;44930;52.878;6.168;2022-12-13T08:56:04;49.30;;;21.80;;
59147;SDS011;44930;52.878;6.168;2022-12-13T08:58:31;38.75;;;19.95;;
59147;SDS011;44930;52.878;6.168;2022-12-13T09:00:57;41.60;;;20.45;;
59147;SDS011;44930;52.878;6.168;2022-12-13T09:03:23;42.85;;;20.83;;
59147;SDS011;44930;52.878;6.168;2022-12-13T09:05:49;35.67;;;19.85;;
59147;SDS011;44930;52.878;6.168;2022-12-13T09:08:16;37.90;;;18.70;;
59147;SDS011;44930;52.878;6.168;2022-12-13T09:10:42;43.17;;;20.27;;
59147;SDS011;44930;52.878;6.168;2022-12-13T09:13:09;43.45;;;21.27;;
59147;SDS011;44930;52.878;6.168;2022-12-13T09:15:36;39.40;;;20.17;;
59147;SDS011;44930;52.878;6.168;2022-12-13T09:18:03;43.97;;;20.70;;
59147;SDS011;44930;52.878;6.168;2022-12-13T09:20:29;41.17;;;21.77;;
59147;SDS011;44930;52.878;6.168;2022-12-13T09:22:55;39.38;;;21.77;;
59147;SDS011;44930;52.878;6.168;2022-12-13T09:25:21;44.90;;;21.65;;
59147;SDS011;44930;52.878;6.168;2022-12-13T09:27:47;39.38;;;21.77;;
59147;SDS011;44930;52.878;6.168;2022-12-13T09:30:13;38.72;;;21.60;;
59147;SDS011;44930;52.878;6.168;2022-12-13T09:32:39;38.35;;;20.95;;
59147;SDS011;44930;52.878;6.168;2022-12-13T09:35:06;39.28;;;20.88;;
59147;SDS011;44930;52.878;6.168;2022-12-13T09:37:32;43.03;;;20.88;;
59147;SDS011;44930;52.878;6.168;2022-12-13T09:39:58;46.88;;;21.75;;
59147;SDS011;44930;52.878;6.168;2022-12-13T09:42:25;41.42;;;22.30;;
59147;SDS011;44930;52.878;6.168;2022-12-13T09:44:53;44.65;;;22.90;;
59147;SDS011;44930;52.878;6.168;2022-12-13T09:49:50;43.35;;;23.13;;
59147;SDS011;44930;52.878;6.168;2022-12-13T09:52:16;40.50;;;23.10;;
59147;SDS011;44930;52.878;6.168;2022-12-13T09:54:52;42.42;;;22.65;;
59147;SDS011;44930;52.878;6.168;2022-12-13T09:57:19;43.65;;;23.65;;
59147;SDS011;44930;52.878;6.168;2022-12-13T09:59:49;42.80;;;22.23;;
59147;SDS011;44930;52.878;6.168;2022-12-13T10:02:26;41.80;;;22.58;;
59147;SDS011;44930;52.878;6.168;2022-12-13T10:05:37;41.38;;;22.48;;
59147;SDS011;44930;52.878;6.168;2022-12-13T10:07:50;53.53;;;22.38;;
59147;SDS011;44930;52.878;6.168;2022-12-13T10:10:18;46.10;;;23.35;;
59147;SDS011;44930;52.878;6.168;2022-12-13T10:12:44;45.50;;;22.67;;
59147;SDS011;44930;52.878;6.168;2022-12-13T10:15:16;46.17;;;23.52;;
59147;SDS011;44930;52.878;6.168;2022-12-13T10:17:44;44.40;;;22.08;;
59147;SDS011;44930;52.878;6.168;2022-12-13T10:20:17;41.63;;;23.52;;
59147;SDS011;44930;52.878;6.168;2022-12-13T10:22:43;45.78;;;23.92;;
59147;SDS011;44930;52.878;6.168;2022-12-13T10:25:09;41.40;;;22.77;;
59147;SDS011;44930;52.878;6.168;2022-12-13T10:27:38;43.65;;;23.80;;
59147;SDS011;44930;52.878;6.168;2022-12-13T10:30:17;41.45;;;21.83;;
59147;SDS011;44930;52.878;6.168;2022-12-13T10:32:56;39.03;;;22.48;;
59147;SDS011;44930;52.878;6.168;2022-12-13T10:37:51;48.13;;;22.27;;
59147;SDS011;44930;52.878;6.168;2022-12-13T10:40:31;46.25;;;23.38;;
59147;SDS011;44930;52.878;6.168;2022-12-13T10:43:17;41.33;;;22.17;;
59147;SDS011;44930;52.878;6.168;2022-12-13T10:46:46;41.20;;;22.17;;
59147;SDS011;44930;52.878;6.168;2022-12-13T10:48:46;42.22;;;23.05;;
59147;SDS011;44930;52.878;6.168;2022-12-13T10:51:15;41.15;;;22.50;;
59147;SDS011;44930;52.878;6.168;2022-12-13T10:53:45;49.05;;;24.85;;
59147;SDS011;44930;52.878;6.168;2022-12-13T10:56:11;42.97;;;22.45;;
59147;SDS011;44930;52.878;6.168;2022-12-13T10:58:38;44.00;;;23.23;;
59147;SDS011;44930;52.878;6.168;2022-12-13T11:03:42;39.90;;;22.58;;
59147;SDS011;44930;52.878;6.168;2022-12-13T11:06:24;42.72;;;23.58;;
59147;SDS011;44930;52.878;6.168;2022-12-13T11:08:51;38.03;;;22.35;;
59147;SDS011;44930;52.878;6.168;2022-12-13T11:11:24;43.42;;;23.48;;
59147;SDS011;44930;52.878;6.168;2022-12-13T11:13:52;41.42;;;23.60;;
59147;SDS011;44930;52.878;6.168;2022-12-13T11:16:23;46.05;;;24.27;;
59147;SDS011;44930;52.878;6.168;2022-12-13T11:19:04;42.53;;;22.67;;
59147;SDS011;44930;52.878;6.168;2022-12-13T11:21:40;40.22;;;22.02;;
59147;SDS011;44930;52.878;6.168;2022-12-13T11:24:14;46.30;;;24.88;;
59147;SDS011;44930;52.878;6.168;2022-12-13T11:26:45;36.88;;;21.88;;
59147;SDS011;44930;52.878;6.168;2022-12-13T11:39:33;43.40;;;22.80;;
59147;SDS011;44930;52.878;6.168;2022-12-13T11:42:08;41.15;;;21.50;;
59147;SDS011;44930;52.878;6.168;2022-12-13T11:47:22;42.50;;;22.50;;
59147;SDS011;44930;52.878;6.168;2022-12-13T11:49:51;36.60;;;20.85;;
59147;SDS011;44930;52.878;6.168;2022-12-13T11:52:34;40.58;;;23.20;;
59147;SDS011;44930;52.878;6.168;2022-12-13T11:58:19;40.47;;;21.98;;
59147;SDS011;44930;52.878;6.168;2022-12-13T12:00:40;42.60;;;22.23;;
59147;SDS011;44930;52.878;6.168;2022-12-13T12:03:22;40.47;;;22.55;;
59147;SDS011;44930;52.878;6.168;2022-12-13T12:05:54;39.63;;;21.15;;
59147;SDS011;44930;52.878;6.168;2022-12-13T12:08:29;38.47;;;22.27;;
59147;SDS011;44930;52.878;6.168;2022-12-13T12:13:36;38.85;;;21.17;;
59147;SDS011;44930;52.878;6.168;2022-12-13T12:18:33;36.72;;;22.70;;
59147;SDS011;44930;52.878;6.168;2022-12-13T12:21:07;31.98;;;21.77;;
59147;SDS011;44930;52.878;6.168;2022-12-13T12:24:07;37.58;;;21.85;;
59147;SDS011;44930;52.878;6.168;2022-12-13T12:26:42;37.20;;;21.85;;
59147;SDS011;44930;52.878;6.168;2022-12-13T12:32:10;40.10;;;23.55;;
59147;SDS011;44930;52.878;6.168;2022-12-13T12:40:30;35.25;;;22.45;;
59147;SDS011;44930;52.878;6.168;2022-12-13T12:46:03;41.17;;;23.35;;
59147;SDS011;44930;52.878;6.168;2022-12-13T12:51:13;38.28;;;21.98;;
59147;SDS011;44930;52.878;6.168;2022-12-13T12:53:46;38.65;;;21.98;;
59147;SDS011;44930;52.878;6.168;2022-12-13T12:58:55;37.85;;;21.90;;
59147;SDS011;44930;52.878;6.168;2022-12-13T13:04:27;36.42;;;20.73;;
59147;SDS011;44930;52.878;6.168;2022-12-13T13:07:02;37.47;;;22.13;;
59147;SDS011;44930;52.878;6.168;2022-12-13T13:09:31;36.05;;;22.10;;
59147;SDS011;44930;52.878;6.168;2022-12-13T13:11:58;38.55;;;21.85;;
59147;SDS011;44930;52.878;6.168;2022-12-13T13:14:35;36.75;;;21.15;;
59147;SDS011;44930;52.878;6.168;2022-12-13T13:17:43;37.33;;;22.10;;
59147;SDS011;44930;52.878;6.168;2022-12-13T13:20:23;41.88;;;22.27;;
59147;SDS011;44930;52.878;6.168;2022-12-13T13:22:51;37.75;;;22.58;;
59147;SDS011;44930;52.878;6.168;2022-12-13T13:25:27;39.72;;;23.98;;
59147;SDS011;44930;52.878;6.168;2022-12-13T13:30:26;37.50;;;21.88;;
59147;SDS011;44930;52.878;6.168;2022-12-13T13:32:54;37.20;;;22.77;;
59147;SDS011;44930;52.878;6.168;2022-12-13T13:38:00;29.88;;;16.55;;
59147;SDS011;44930;52.878;6.168;2022-12-13T13:40:27;40.03;;;22.85;;
59147;SDS011;44930;52.878;6.168;2022-12-13T13:45:27;33.33;;;20.75;;
59147;SDS011;44930;52.878;6.168;2022-12-13T13:48:12;47.28;;;29.40;;
59147;SDS011;44930;52.878;6.168;2022-12-13T13:53:33;35.38;;;22.35;;
59147;SDS011;44930;52.878;6.168;2022-12-13T13:56:33;36.58;;;22.73;;
59147;SDS011;44930;52.878;6.168;2022-12-13T13:59:35;36.85;;;21.45;;
59147;SDS011;44930;52.878;6.168;2022-12-13T14:08:40;33.67;;;20.40;;
59147;SDS011;44930;52.878;6.168;2022-12-13T14:11:18;34.42;;;22.90;;
59147;SDS011;44930;52.878;6.168;2022-12-13T14:13:57;34.00;;;21.27;;
59147;SDS011;44930;52.878;6.168;2022-12-13T14:19:16;29.20;;;18.98;;
59147;SDS011;44930;52.878;6.168;2022-12-13T14:27:43;31.35;;;18.92;;
59147;SDS011;44930;52.878;6.168;2022-12-13T14:30:39;31.67;;;19.45;;
59147;SDS011;44930;52.878;6.168;2022-12-13T14:33:10;35.50;;;20.30;;
59147;SDS011;44930;52.878;6.168;2022-12-13T14:35:55;32.90;;;18.90;;
59147;SDS011;44930;52.878;6.168;2022-12-13T14:38:26;31.45;;;19.20;;
59147;SDS011;44930;52.878;6.168;2022-12-13T14:40:55;34.42;;;20.23;;
59147;SDS011;44930;52.878;6.168;2022-12-13T14:45:52;39.50;;;22.10;;
59147;SDS011;44930;52.878;6.168;2022-12-13T14:48:22;35.38;;;20.38;;
59147;SDS011;44930;52.878;6.168;2022-12-13T14:50:48;36.67;;;22.65;;
59147;SDS011;44930;52.878;6.168;2022-12-13T14:55:46;41.47;;;22.25;;
59147;SDS011;44930;52.878;6.168;2022-12-13T14:58:28;36.92;;;20.65;;
59147;SDS011;44930;52.878;6.168;2022-12-13T15:00:55;39.90;;;22.33;;
59147;SDS011;44930;52.878;6.168;2022-12-13T15:03:22;36.03;;;21.20;;
59147;SDS011;44930;52.878;6.168;2022-12-13T15:05:51;40.78;;;22.50;;
59147;SDS011;44930;52.878;6.168;2022-12-13T15:08:19;38.60;;;21.35;;
59147;SDS011;44930;52.878;6.168;2022-12-13T15:10:47;42.80;;;23.67;;
59147;SDS011;44930;52.878;6.168;2022-12-13T15:16:01;43.35;;;23.15;;
59147;SDS011;44930;52.878;6.168;2022-12-13T15:18:30;42.65;;;23.77;;
59147;SDS011;44930;52.878;6.168;2022-12-13T15:20:57;42.28;;;22.00;;
59147;SDS011;44930;52.878;6.168;2022-12-13T15:23:28;42.97;;;24.42;;
59147;SDS011;44930;52.878;6.168;2022-12-13T15:28:27;49.95;;;26.10;;
59147;SDS011;44930;52.878;6.168;2022-12-13T15:30:57;45.33;;;25.98;;
59147;SDS011;44930;52.878;6.168;2022-12-13T15:33:24;49.97;;;25.00;;
59147;SDS011;44930;52.878;6.168;2022-12-13T15:41:40;46.10;;;25.88;;
59147;SDS011;44930;52.878;6.168;2022-12-13T15:44:18;39.50;;;24.25;;
59147;SDS011;44930;52.878;6.168;2022-12-13T15:46:48;42.92;;;23.65;;
59147;SDS011;44930;52.878;6.168;2022-12-13T15:49:27;40.53;;;24.85;;
59147;SDS011;44930;52.878;6.168;2022-12-13T15:52:01;42.67;;;24.10;;
59147;SDS011;44930;52.878;6.168;2022-12-13T15:54:27;45.95;;;25.15;;
59147;SDS011;44930;52.878;6.168;2022-12-13T15:57:02;45.33;;;24.15;;
59147;SDS011;44930;52.878;6.168;2022-12-13T15:59:37;38.90;;;21.83;;
59147;SDS011;44930;52.878;6.168;2022-12-13T16:02:03;40.00;;;23.50;;
59147;SDS011;44930;52.878;6.168;2022-12-13T16:04:37;38.53;;;22.48;;
59147;SDS011;44930;52.878;6.168;2022-12-13T16:07:03;44.42;;;22.95;;
59147;SDS011;44930;52.878;6.168;2022-12-13T16:09:32;40.40;;;22.30;;
59147;SDS011;44930;52.878;6.168;2022-12-13T16:12:01;41.70;;;24.13;;
59147;SDS011;44930;52.878;6.168;2022-12-13T16:19:25;40.88;;;23.27;;
59147;SDS011;44930;52.878;6.168;2022-12-13T16:21:51;41.90;;;23.80;;
59147;SDS011;44930;52.878;6.168;2022-12-13T16:24:17;35.55;;;20.35;;
59147;SDS011;44930;52.878;6.168;2022-12-13T16:26:44;36.95;;;21.55;;
59147;SDS011;44930;52.878;6.168;2022-12-13T16:29:12;37.97;;;21.52;;